Alamosa, CO

2:19 AM MDT on August 01, 2014 (GMT -0600)
NE of Alamosa (KCOALAMO7) Elev 7556 ft | 37.52 °N, 105.85 °W | Change Station

Current weather conditions updated 17 minutes ago

Partly Cloudy
Partly Cloudy
51.1 °F
Feels Like 51.1 °F
N
4.0
Wind Variable Wind from South
Gusts 4.0 mph

Today is forecast to be nearly the same temperature as yesterday. Scattered thunderstorms possible.

Today
High -- | Low -- °F
--% Chance of Precip.
Yesterday
High -- | Low -- °F
Precip. -- in
6:07 AM 8:11 PM
Waxing Crescent, 24% visible
Pressure 30.14 in
Visibility 10.0 miles
Clouds Few 4800 ft
Dew Point 49 °F
Humidity 93%
Rainfall 0.00 in
Snow Depth Not available.
UV 0 out of 12
Pollen 2.80 out of 12
Air Quality Not available.
Flu Activity Not available.
METAR KALS 010752Z AUTO 11006KT 10SM FEW048 12/09 A3039 RMK AO2 SLP206 T01170094

More Conditions Fewer Conditions

Pressure 30.14 in
Visibility 10.0 miles
Clouds Few 4800 ft
Dew Point 49 °F
Humidity 93%
Rainfall 0.00 in
Snow Depth Not available.
UV 0 out of 12
Pollen 2.80 out of 12
Air Quality Not available.
Flu Activity Not available.
METAR KALS 010752Z AUTO 11006KT 10SM FEW048 12/09 A3039 RMK AO2 SLP206 T01170094

More Conditions Fewer Conditions

10-Day Weather Forecast

Almanac

Astronomy

Aug. 01, 2014 Rise Set
Actual Time 6:07 AM MDT 8:11 PM MDT
Civil Twilight 5:38 AM MDT 8:40 PM MDT
Nautical Twilight 5:03 AM MDT 9:15 PM MDT
Astronomical Twilight 4:25 AM MDT 9:53 PM MDT
Moon 11:26 AM MDT 11:05 PM MDT
Length of Visible Light 15h 01m
Length of Day
14h 03m
Tomorrow will be 1m 49s shorter.
Waxing Crescent, 24% of the Moon is Illuminated
Today
Waxing Crescent
Aug 3
First Quarter
Aug 10
Full
Aug 17
Last Quarter
Aug 25
New

Today's Extremes

State Highs State Lows

Community

WunderPhotos

Upload Photos

1,739,522 photos uploaded!

Nearby

Snow Depth

Station Depth Elevation
Ute Creek 0 in 10650 ft
Medano Pass 1 in 9620 ft
Trinchera 1 in 10860 ft
Apishapa 0 in 10000 ft
Wolf Creek Summit 0 in 11000 ft

Earthquake Activity

City Distance Mag. Time & Date
No recent earthquake activity has been reported nearby.
Minimum magnitude displayed is 2.5.

Coastal Water Temperatures

Place Temperature
No Stations Reporting

Nearby Weather Stations

Station Location Temp. Dew Point Humidity Wind Precip. Elev Updated Type
NE of Alamosa, Alamosa, CO 51.1 °F 49 °F 93% South  at  4.0 mph 0.00 in / hr 7556 ft 2:02 AM MDT Normal
Monte Vista, CO 52.3 °F 50 °F 93% WNW  at  2.3 mph 0.00 in / hr 7674 ft 2:19 AM MDT Rapid Fire
WestMonteVista, Monte Vista, CO 52.5 °F 42 °F 66% NW  at  0.7 mph 0.00 in / hr 7684 ft 2:10 AM MDT Normal
North West of, MONTE VISTA, CO 52.5 °F 49 °F 86% West  at  0.0 mph 0.00 in / hr 7720 ft 2:19 AM MDT Rapid Fire
NE of Center, Center, CO 53.6 °F 51 °F 91% NE  at  0.0 mph 0.00 in / hr 7631 ft 2:19 AM MDT Rapid Fire

Show More Stations Show Fewer Stations